createdAt,value
2019-01-26T00:00:50.371Z,0.11
2019-01-26T00:01:50.366Z,0.20
2019-01-26T00:02:50.363Z,0.17
2019-01-26T00:03:50.375Z,0.13
2019-01-26T00:04:50.324Z,0.14
2019-01-26T00:05:50.309Z,0.17
2019-01-26T00:06:50.322Z,0.14
2019-01-26T00:07:50.287Z,0.21
2019-01-26T00:08:50.295Z,0.15
2019-01-26T00:09:50.266Z,0.20
2019-01-26T00:10:50.258Z,0.18
2019-01-26T00:11:50.253Z,0.18
2019-01-26T00:12:50.233Z,0.18
2019-01-26T00:13:50.257Z,0.14
2019-01-26T00:14:50.221Z,0.18
2019-01-26T00:15:50.201Z,0.18
2019-01-26T00:16:50.199Z,0.21
2019-01-26T00:17:50.175Z,0.17
2019-01-26T00:18:50.188Z,0.24
2019-01-26T00:19:50.163Z,0.23
2019-01-26T00:20:50.150Z,0.18
2019-01-26T00:21:50.134Z,0.20
2019-01-26T00:22:50.122Z,0.28
2019-01-26T00:23:50.138Z,0.24
2019-01-26T00:24:50.102Z,0.31
2019-01-26T00:25:50.088Z,0.20
2019-01-26T00:26:50.081Z,0.17
2019-01-26T00:27:50.074Z,0.17
2019-01-26T00:28:50.090Z,0.17
2019-01-26T00:29:50.048Z,0.20
2019-01-26T00:30:50.039Z,0.23
2019-01-26T00:31:50.022Z,0.17
2019-01-26T00:32:50.013Z,0.17
2019-01-26T00:33:50.010Z,0.24
2019-01-26T00:34:50.012Z,0.20
2019-01-26T00:35:49.981Z,0.21
2019-01-26T00:36:49.969Z,0.28
2019-01-26T00:37:49.958Z,0.21
2019-01-26T00:38:49.946Z,0.21
2019-01-26T00:39:49.959Z,0.21
2019-01-26T00:40:49.921Z,0.24
2019-01-26T00:41:49.912Z,0.20
2019-01-26T00:42:49.906Z,0.21
2019-01-26T00:43:49.890Z,0.21
2019-01-26T00:44:49.896Z,0.24
2019-01-26T00:45:49.875Z,0.31
2019-01-26T00:46:49.859Z,0.29
2019-01-26T00:47:49.844Z,0.26
2019-01-26T00:48:49.833Z,0.28
2019-01-26T00:49:49.843Z,0.24
2019-01-26T00:50:49.812Z,0.24
2019-01-26T00:51:49.826Z,0.29
2019-01-26T00:52:49.796Z,0.24
2019-01-26T00:53:49.785Z,0.20
2019-01-26T00:54:49.791Z,0.31
2019-01-26T00:55:49.758Z,0.23
2019-01-26T00:56:49.752Z,0.20
2019-01-26T00:57:49.738Z,0.28
2019-01-26T00:58:49.730Z,0.20
2019-01-26T00:59:49.732Z,0.23
2019-01-26T01:00:49.707Z,0.23
2019-01-26T01:01:49.695Z,0.35
2019-01-26T01:02:49.683Z,0.17
2019-01-26T01:03:49.681Z,0.18
2019-01-26T01:04:49.683Z,0.18
2019-01-26T01:05:49.658Z,0.21
2019-01-26T01:06:49.641Z,0.29
2019-01-26T01:07:49.677Z,0.28
2019-01-26T01:08:49.623Z,0.26
2019-01-26T01:09:49.671Z,0.26
2019-01-26T01:10:49.618Z,0.23
2019-01-26T01:11:49.584Z,0.23
2019-01-26T01:12:49.574Z,0.35
2019-01-26T01:13:49.562Z,0.26
2019-01-26T01:14:49.552Z,0.31
2019-01-26T01:15:49.561Z,0.29
2019-01-26T01:16:49.539Z,0.29
2019-01-26T01:17:49.519Z,0.32
2019-01-26T01:18:49.538Z,0.29
2019-01-26T01:19:49.505Z,0.26
2019-01-26T01:20:49.533Z,0.32
2019-01-26T01:21:49.523Z,0.39
2019-01-26T01:22:49.471Z,0.28
2019-01-26T01:23:49.452Z,0.36
2019-01-26T01:24:49.441Z,0.33
2019-01-26T01:25:49.459Z,0.38
2019-01-26T01:26:49.421Z,0.35
2019-01-26T01:27:49.410Z,0.35
2019-01-26T01:28:49.409Z,0.32
2019-01-26T01:29:49.391Z,0.38
2019-01-26T01:30:49.411Z,0.33
2019-01-26T01:31:49.374Z,0.33
2019-01-26T01:32:49.356Z,0.35
2019-01-26T01:33:49.346Z,0.38
2019-01-26T01:34:49.369Z,0.35
2019-01-26T01:35:49.339Z,0.35
2019-01-26T01:36:49.328Z,0.35
2019-01-26T01:37:49.313Z,0.36
2019-01-26T01:38:49.290Z,0.38
2019-01-26T01:39:49.284Z,0.35
2019-01-26T01:40:49.282Z,0.35
2019-01-26T01:41:49.278Z,0.32
2019-01-26T01:42:49.247Z,0.35
2019-01-26T01:43:49.237Z,0.38
2019-01-26T01:44:49.224Z,0.38
2019-01-26T01:45:49.224Z,0.32
2019-01-26T01:46:49.227Z,0.33
2019-01-26T01:47:49.245Z,0.35
2019-01-26T01:48:49.185Z,0.36
2019-01-26T01:49:49.175Z,0.32
2019-01-26T01:50:49.160Z,0.32
2019-01-26T01:51:49.165Z,0.33
2019-01-26T01:52:49.137Z,0.36
2019-01-26T01:53:49.145Z,0.35
2019-01-26T01:54:49.115Z,0.35
2019-01-26T01:55:49.111Z,0.38
2019-01-26T01:56:49.118Z,0.38
2019-01-26T01:57:49.083Z,0.33
2019-01-26T01:58:49.077Z,0.36
2019-01-26T01:59:49.058Z,0.39
2019-01-26T02:00:49.051Z,0.35
2019-01-26T02:01:49.067Z,0.39
2019-01-26T02:02:49.032Z,0.29
2019-01-26T02:03:49.018Z,0.42
2019-01-26T02:04:49.013Z,0.42
2019-01-26T02:05:48.995Z,0.36
2019-01-26T02:06:49.009Z,0.46
2019-01-26T02:07:48.987Z,0.38
2019-01-26T02:08:48.969Z,0.35
2019-01-26T02:09:48.965Z,0.47
2019-01-26T02:10:48.941Z,0.49
2019-01-26T02:11:48.929Z,0.38
2019-01-26T02:12:48.938Z,0.47
2019-01-26T02:13:48.906Z,0.49
2019-01-26T02:14:48.902Z,0.46
2019-01-26T02:15:48.888Z,0.46
2019-01-26T02:16:50.217Z,0.46
2019-01-26T02:17:48.888Z,0.46
2019-01-26T02:18:48.853Z,0.49
2019-01-26T02:19:48.842Z,0.46
2019-01-26T02:20:48.838Z,0.51
2019-01-26T02:21:48.828Z,0.50
2019-01-26T02:22:48.827Z,0.49
2019-01-26T02:23:48.801Z,0.50
2019-01-26T02:24:48.786Z,0.60
2019-01-26T02:25:48.797Z,0.49
2019-01-26T02:26:48.775Z,0.53
2019-01-26T02:27:48.791Z,0.49
2019-01-26T02:28:48.745Z,0.38
2019-01-26T02:29:48.735Z,0.47
2019-01-26T02:30:48.723Z,0.51
2019-01-26T02:31:48.713Z,0.42
2019-01-26T02:32:48.703Z,0.57
2019-01-26T02:33:48.708Z,0.50
2019-01-26T02:34:48.681Z,0.50
2019-01-26T02:35:48.668Z,0.58
2019-01-26T02:36:48.661Z,0.50
2019-01-26T02:37:48.651Z,0.53
2019-01-26T02:38:48.664Z,0.53
2019-01-26T02:39:48.624Z,0.55
2019-01-26T02:40:48.617Z,0.53
2019-01-26T02:41:48.606Z,0.53
2019-01-26T02:42:48.593Z,0.49
2019-01-26T02:43:48.613Z,0.50
2019-01-26T02:44:48.572Z,0.53
2019-01-26T02:45:48.564Z,0.47
2019-01-26T02:46:48.558Z,0.57
2019-01-26T02:47:48.537Z,0.46
2019-01-26T02:48:48.555Z,0.50
2019-01-26T02:49:48.516Z,0.47
2019-01-26T02:50:48.526Z,0.51
2019-01-26T02:51:48.505Z,0.57
2019-01-26T02:52:48.484Z,0.46
2019-01-26T02:53:48.471Z,0.51
2019-01-26T02:54:48.479Z,0.51
2019-01-26T02:55:48.452Z,0.62
2019-01-26T02:56:48.463Z,0.57
2019-01-26T02:57:48.430Z,0.61
2019-01-26T02:58:48.425Z,0.65
2019-01-26T02:59:48.425Z,0.62
2019-01-26T03:00:48.397Z,0.68
2019-01-26T03:01:48.384Z,0.68
2019-01-26T03:02:48.381Z,0.65
2019-01-26T03:03:48.364Z,0.62
2019-01-26T03:04:48.371Z,0.73
2019-01-26T03:05:48.342Z,0.65
2019-01-26T03:06:48.331Z,0.72
2019-01-26T03:07:48.319Z,0.72
2019-01-26T03:08:48.318Z,0.62
2019-01-26T03:09:48.317Z,0.68
2019-01-26T03:10:48.285Z,0.66
2019-01-26T03:11:48.277Z,0.62
2019-01-26T03:12:48.267Z,0.61
2019-01-26T03:13:48.255Z,0.68
2019-01-26T03:14:48.272Z,0.68
2019-01-26T03:15:48.244Z,0.78
2019-01-26T03:16:48.220Z,0.70
2019-01-26T03:17:48.215Z,0.78
2019-01-26T03:18:48.203Z,0.65
2019-01-26T03:19:48.211Z,0.70
2019-01-26T03:20:48.180Z,0.70
2019-01-26T03:21:48.175Z,0.66
2019-01-26T03:22:48.155Z,0.65
2019-01-26T03:23:48.150Z,0.68
2019-01-26T03:24:48.156Z,0.69
2019-01-26T03:25:48.127Z,0.76
2019-01-26T03:26:48.113Z,0.80
2019-01-26T03:27:48.143Z,0.68
2019-01-26T03:28:48.106Z,0.75
2019-01-26T03:29:48.101Z,0.70
2019-01-26T03:30:48.086Z,0.76
2019-01-26T03:31:48.076Z,0.80
2019-01-26T03:32:48.060Z,0.79
2019-01-26T03:33:48.042Z,0.76
2019-01-26T03:34:48.033Z,0.79
2019-01-26T03:35:48.045Z,0.79
2019-01-26T03:36:48.017Z,0.86
2019-01-26T03:37:47.994Z,0.90
2019-01-26T03:38:47.981Z,0.78
2019-01-26T03:39:47.979Z,0.83
2019-01-26T03:40:47.978Z,0.80
2019-01-26T03:41:47.957Z,0.79
2019-01-26T03:42:47.950Z,0.84
2019-01-26T03:43:47.929Z,0.84
2019-01-26T03:44:47.928Z,0.88
2019-01-26T03:45:47.924Z,0.86
2019-01-26T03:46:47.916Z,0.86
2019-01-26T03:47:47.892Z,0.90
2019-01-26T03:48:47.873Z,0.90
2019-01-26T03:49:47.877Z,0.84
2019-01-26T03:50:47.854Z,0.93
2019-01-26T03:51:47.888Z,0.97
2019-01-26T03:52:47.833Z,0.90
2019-01-26T03:53:47.826Z,0.90
2019-01-26T03:54:47.808Z,0.96
2019-01-26T03:55:47.799Z,0.96
2019-01-26T03:56:47.808Z,0.97
2019-01-26T03:57:47.777Z,0.93
2019-01-26T03:58:47.770Z,0.96
2019-01-26T03:59:47.761Z,0.96
2019-01-26T04:00:47.753Z,1.02
2019-01-26T04:01:47.748Z,0.93
2019-01-26T04:02:47.755Z,0.94
2019-01-26T04:03:47.714Z,0.94
2019-01-26T04:04:47.705Z,0.91
2019-01-26T04:05:47.694Z,0.98
2019-01-26T04:06:47.684Z,0.94
2019-01-26T04:07:47.682Z,0.97
2019-01-26T04:08:47.656Z,0.97
2019-01-26T04:09:47.647Z,0.94
2019-01-26T04:10:47.634Z,0.96
2019-01-26T04:11:47.628Z,0.88
2019-01-26T04:12:47.629Z,0.87
2019-01-26T04:13:47.602Z,0.88
2019-01-26T04:14:47.595Z,0.96
2019-01-26T04:15:47.582Z,0.87
2019-01-26T04:16:47.570Z,0.91
2019-01-26T04:17:47.588Z,0.93
2019-01-26T04:18:47.556Z,0.94
2019-01-26T04:19:47.536Z,0.98
2019-01-26T04:20:47.525Z,0.90
2019-01-26T04:21:47.535Z,0.87
2019-01-26T04:22:47.505Z,0.96
2019-01-26T04:23:47.519Z,0.90
2019-01-26T04:24:47.482Z,0.96
2019-01-26T04:25:47.470Z,1.00
2019-01-26T04:26:47.461Z,0.96
2019-01-26T04:27:47.450Z,0.91
2019-01-26T04:28:47.457Z,0.94
2019-01-26T04:29:47.439Z,0.96
2019-01-26T04:30:47.416Z,0.98
2019-01-26T04:31:47.404Z,1.02
2019-01-26T04:32:47.422Z,0.98
2019-01-26T04:33:47.381Z,0.98
2019-01-26T04:34:47.398Z,0.98
2019-01-26T04:35:47.369Z,1.04
2019-01-26T04:36:47.353Z,0.97
2019-01-26T04:37:47.352Z,1.00
2019-01-26T04:38:47.356Z,1.05
2019-01-26T04:39:47.321Z,0.96
2019-01-26T04:40:47.314Z,1.05
2019-01-26T04:41:47.315Z,1.02
2019-01-26T04:42:47.303Z,1.02
2019-01-26T04:43:47.283Z,1.02
2019-01-26T04:44:47.283Z,1.05
2019-01-26T04:45:47.260Z,1.05
2019-01-26T04:46:47.255Z,1.02
2019-01-26T04:47:47.286Z,1.00
2019-01-26T04:48:47.245Z,1.00
2019-01-26T04:49:47.212Z,1.02
2019-01-26T04:50:47.217Z,1.02
2019-01-26T04:51:47.201Z,1.00
2019-01-26T04:52:47.177Z,1.09
2019-01-26T04:53:47.183Z,1.00
2019-01-26T04:54:47.161Z,1.04
2019-01-26T04:55:47.150Z,0.98
2019-01-26T04:56:47.133Z,1.12
2019-01-26T04:57:47.121Z,1.04
2019-01-26T04:58:47.127Z,0.98
2019-01-26T04:59:47.105Z,1.08
2019-01-26T05:00:47.096Z,1.09
2019-01-26T05:01:47.078Z,1.08
2019-01-26T05:02:47.067Z,1.11
2019-01-26T05:03:47.076Z,1.06
2019-01-26T05:04:47.047Z,1.05
2019-01-26T05:05:47.038Z,1.05
2019-01-26T05:06:47.031Z,1.00
2019-01-26T05:07:47.015Z,1.05
2019-01-26T05:08:47.021Z,1.04
2019-01-26T05:09:47.030Z,1.05
2019-01-26T05:10:46.981Z,1.14
2019-01-26T05:11:46.972Z,1.12
2019-01-26T05:12:46.973Z,1.14
2019-01-26T05:13:46.950Z,1.14
2019-01-26T05:14:46.976Z,1.16
2019-01-26T05:15:46.927Z,1.11
2019-01-26T05:16:46.920Z,1.15
2019-01-26T05:17:46.908Z,1.15
2019-01-26T05:18:46.927Z,1.12
2019-01-26T05:19:46.911Z,1.18
2019-01-26T05:20:46.873Z,1.09
2019-01-26T05:21:46.862Z,1.08
2019-01-26T05:22:46.851Z,1.20
2019-01-26T05:23:46.840Z,1.14
2019-01-26T05:24:46.857Z,1.15
2019-01-26T05:25:46.834Z,1.12
2019-01-26T05:26:46.814Z,1.14
2019-01-26T05:27:46.795Z,1.12
2019-01-26T05:28:46.786Z,1.12
2019-01-26T05:29:46.774Z,1.11
2019-01-26T05:30:46.785Z,1.06
2019-01-26T05:31:46.754Z,1.12
2019-01-26T05:32:46.745Z,1.06
2019-01-26T05:33:46.731Z,1.12
2019-01-26T05:34:46.719Z,1.15
2019-01-26T05:35:46.726Z,1.14
2019-01-26T05:36:46.711Z,1.16
2019-01-26T05:37:46.693Z,1.14
2019-01-26T05:38:46.675Z,1.22
2019-01-26T05:39:46.665Z,1.20
2019-01-26T05:40:46.675Z,1.09
2019-01-26T05:41:46.643Z,1.12
2019-01-26T05:42:46.646Z,1.22
2019-01-26T05:43:46.627Z,1.22
2019-01-26T05:44:46.613Z,1.22
2019-01-26T05:45:46.619Z,1.23
2019-01-26T05:46:46.595Z,1.22
2019-01-26T05:47:48.730Z,1.20
2019-01-26T05:48:46.567Z,1.18
2019-01-26T05:49:46.565Z,1.23
2019-01-26T05:50:46.567Z,1.27
2019-01-26T05:51:46.534Z,1.30
2019-01-26T05:52:46.550Z,1.23
2019-01-26T05:53:46.514Z,1.33
2019-01-26T05:54:46.503Z,1.33
2019-01-26T05:55:46.517Z,1.30
2019-01-26T05:56:46.494Z,1.30
2019-01-26T05:57:46.467Z,1.37
2019-01-26T05:58:46.461Z,1.34
2019-01-26T05:59:46.445Z,1.34
2019-01-26T06:00:46.451Z,1.30
2019-01-26T06:01:46.426Z,1.36
2019-01-26T06:02:46.420Z,1.36
2019-01-26T06:03:46.407Z,1.29
2019-01-26T06:04:46.398Z,1.41
2019-01-26T06:05:46.396Z,1.40
2019-01-26T06:06:46.371Z,1.34
2019-01-26T06:07:46.359Z,1.34
2019-01-26T06:08:46.373Z,1.30
2019-01-26T06:09:46.341Z,1.34
2019-01-26T06:10:46.356Z,1.33
2019-01-26T06:11:46.316Z,1.37
2019-01-26T06:12:46.306Z,1.37
2019-01-26T06:13:46.297Z,1.29
2019-01-26T06:14:46.285Z,1.41
2019-01-26T06:15:46.283Z,1.36
2019-01-26T06:16:46.440Z,1.36
2019-01-26T06:17:46.269Z,1.30
2019-01-26T06:18:46.240Z,1.34
2019-01-26T06:19:46.229Z,1.36
2019-01-26T06:20:46.219Z,1.30
2019-01-26T06:21:46.229Z,1.29
2019-01-26T06:22:46.200Z,1.37
2019-01-26T06:23:46.869Z,1.32
2019-01-26T06:24:46.191Z,1.41
2019-01-26T06:25:46.164Z,1.40
2019-01-26T06:26:46.174Z,1.33
2019-01-26T06:27:46.142Z,1.40
2019-01-26T06:28:46.135Z,1.42
2019-01-26T06:29:46.118Z,1.48
2019-01-26T06:30:46.108Z,1.47
2019-01-26T06:31:46.115Z,1.51
2019-01-26T06:32:46.086Z,1.44
2019-01-26T06:33:46.072Z,1.50
2019-01-26T06:34:46.077Z,1.52
2019-01-26T06:35:46.060Z,1.59
2019-01-26T06:36:46.065Z,1.50
2019-01-26T06:37:46.063Z,1.52
2019-01-26T06:38:46.019Z,1.55
2019-01-26T06:39:46.008Z,1.63
2019-01-26T06:40:46.002Z,1.69
2019-01-26T06:41:46.006Z,1.63
2019-01-26T06:42:45.977Z,1.66
2019-01-26T06:43:45.978Z,1.65
2019-01-26T06:44:45.971Z,1.69
2019-01-26T06:45:45.953Z,1.63
2019-01-26T06:46:45.948Z,1.73
2019-01-26T06:47:45.943Z,1.70
2019-01-26T06:48:45.912Z,1.73
2019-01-26T06:49:45.899Z,1.70
2019-01-26T06:50:45.890Z,1.81
2019-01-26T06:51:45.885Z,1.84
2019-01-26T06:52:45.918Z,1.73
2019-01-26T06:53:45.858Z,1.73
2019-01-26T06:54:45.847Z,1.77
2019-01-26T06:55:45.840Z,1.73
2019-01-26T06:56:45.837Z,1.69
2019-01-26T06:57:45.843Z,1.76
2019-01-26T06:58:45.828Z,1.76
2019-01-26T06:59:45.795Z,1.73
2019-01-26T07:00:45.787Z,1.86
2019-01-26T07:01:45.771Z,1.84
2019-01-26T07:02:45.768Z,1.88
2019-01-26T07:03:46.164Z,1.79
2019-01-26T07:04:45.742Z,1.87
2019-01-26T07:05:45.728Z,1.83
2019-01-26T07:06:45.712Z,1.83
2019-01-26T07:07:45.703Z,1.81
2019-01-26T07:08:45.730Z,1.84
2019-01-26T07:09:45.683Z,1.87
2019-01-26T07:10:45.680Z,1.83
2019-01-26T07:11:45.661Z,1.86
2019-01-26T07:12:45.647Z,1.84
2019-01-26T07:13:45.654Z,1.81
2019-01-26T07:14:45.664Z,1.87
2019-01-26T07:15:45.623Z,1.87
2019-01-26T07:16:45.613Z,1.95
2019-01-26T07:17:45.601Z,1.93
2019-01-26T07:18:45.610Z,1.99
2019-01-26T07:19:45.577Z,1.93
2019-01-26T07:20:45.559Z,1.91
2019-01-26T07:21:45.549Z,1.90
2019-01-26T07:22:45.547Z,2.03
2019-01-26T07:23:45.548Z,1.99
2019-01-26T07:24:45.544Z,2.03
2019-01-26T07:25:45.509Z,2.07
2019-01-26T07:26:45.496Z,2.14
2019-01-26T07:27:45.488Z,2.07
2019-01-26T07:28:45.487Z,2.00
2019-01-26T07:29:45.465Z,2.09
2019-01-26T07:30:45.451Z,2.16
2019-01-26T07:31:45.456Z,2.07
2019-01-26T07:32:45.428Z,2.16
2019-01-26T07:33:45.436Z,2.18
2019-01-26T07:34:45.421Z,2.17
2019-01-26T07:35:45.392Z,2.17
2019-01-26T07:36:45.388Z,2.10
2019-01-26T07:37:45.377Z,2.14
2019-01-26T07:38:45.363Z,2.14
2019-01-26T07:39:45.377Z,2.12
2019-01-26T07:40:45.337Z,2.17
2019-01-26T07:41:45.329Z,2.17
2019-01-26T07:42:45.323Z,2.09
2019-01-26T07:43:45.309Z,2.14
2019-01-26T07:44:45.329Z,2.16
2019-01-26T07:45:45.288Z,2.09
2019-01-26T07:46:45.272Z,2.17
2019-01-26T07:47:45.269Z,2.05
2019-01-26T07:48:45.251Z,2.12
2019-01-26T07:49:45.253Z,2.12
2019-01-26T07:50:45.236Z,1.95
2019-01-26T07:51:45.218Z,2.09
2019-01-26T07:52:45.228Z,1.98
2019-01-26T07:53:45.196Z,1.98
2019-01-26T07:54:45.213Z,2.05
2019-01-26T07:55:45.178Z,2.07
2019-01-26T07:56:45.172Z,2.07
2019-01-26T07:57:45.155Z,2.03
2019-01-26T07:58:45.144Z,2.09
2019-01-26T07:59:45.148Z,2.06
2019-01-26T08:00:45.122Z,2.05
2019-01-26T08:01:45.125Z,2.03
2019-01-26T08:02:45.109Z,2.07
2019-01-26T08:03:45.084Z,2.06
2019-01-26T08:04:45.091Z,2.05
2019-01-26T08:05:45.068Z,2.02
2019-01-26T08:06:45.054Z,2.06
2019-01-26T08:07:45.077Z,2.10
2019-01-26T08:08:45.034Z,2.14
2019-01-26T08:09:45.054Z,2.10
2019-01-26T08:10:45.007Z,2.12
2019-01-26T08:11:45.027Z,2.09
2019-01-26T08:12:44.996Z,2.14
2019-01-26T08:13:44.973Z,2.09
2019-01-26T08:14:44.982Z,2.17
2019-01-26T08:15:44.955Z,2.16
2019-01-26T08:16:44.964Z,2.10
2019-01-26T08:17:44.934Z,2.14
2019-01-26T08:18:44.928Z,2.16
2019-01-26T08:19:44.925Z,2.18
2019-01-26T08:20:44.896Z,2.16
2019-01-26T08:21:44.888Z,2.14
2019-01-26T08:22:44.883Z,2.16
2019-01-26T08:23:44.870Z,2.30
2019-01-26T08:24:44.873Z,2.21
2019-01-26T08:25:44.862Z,2.24
2019-01-26T08:26:44.836Z,2.18
2019-01-26T08:27:44.829Z,2.18
2019-01-26T08:28:44.813Z,2.23
2019-01-26T08:29:44.803Z,2.21
2019-01-26T08:30:44.810Z,2.35
2019-01-26T08:31:44.776Z,2.27
2019-01-26T08:32:44.780Z,2.27
2019-01-26T08:33:44.752Z,2.28
2019-01-26T08:34:44.748Z,2.28
2019-01-26T08:35:44.774Z,2.27
2019-01-26T08:36:44.735Z,2.31
2019-01-26T08:37:44.718Z,2.27
2019-01-26T08:38:44.698Z,2.35
2019-01-26T08:39:44.709Z,2.28
2019-01-26T08:40:44.710Z,2.25
2019-01-26T08:41:44.670Z,2.25
2019-01-26T08:42:44.666Z,2.45
2019-01-26T08:43:44.642Z,2.28
2019-01-26T08:44:44.632Z,2.31
2019-01-26T08:45:44.636Z,2.28
2019-01-26T08:46:44.628Z,2.34
2019-01-26T08:47:44.601Z,2.30
2019-01-26T08:48:44.589Z,2.41
2019-01-26T08:49:44.577Z,2.42
2019-01-26T08:50:44.571Z,2.34
2019-01-26T08:51:44.583Z,2.36
2019-01-26T08:52:44.557Z,2.35
2019-01-26T08:53:44.549Z,2.43
2019-01-26T08:54:44.522Z,2.41
2019-01-26T08:55:44.514Z,2.48
2019-01-26T08:56:44.523Z,2.43
2019-01-26T08:57:44.494Z,2.42
2019-01-26T08:58:44.496Z,2.48
2019-01-26T08:59:44.468Z,2.46
2019-01-26T09:00:44.456Z,2.48
2019-01-26T09:01:44.496Z,2.48
2019-01-26T09:02:44.439Z,2.52
2019-01-26T09:03:44.429Z,2.52
2019-01-26T09:04:44.414Z,2.53
2019-01-26T09:05:44.413Z,2.48
2019-01-26T09:06:44.409Z,2.48
2019-01-26T09:07:44.384Z,2.52
2019-01-26T09:08:44.368Z,2.45
2019-01-26T09:09:44.360Z,2.52
2019-01-26T09:10:44.349Z,2.53
2019-01-26T09:11:44.372Z,2.48
2019-01-26T09:12:44.322Z,2.59
2019-01-26T09:13:44.314Z,2.57
2019-01-26T09:14:44.351Z,2.52
2019-01-26T09:15:44.298Z,2.56
2019-01-26T09:16:44.306Z,2.53
2019-01-26T09:17:44.269Z,2.59
2019-01-26T09:18:44.263Z,2.63
2019-01-26T09:19:44.247Z,2.63
2019-01-26T09:20:44.237Z,2.60
2019-01-26T09:21:44.223Z,2.63
2019-01-26T09:22:44.247Z,2.63
2019-01-26T09:23:44.206Z,2.67
2019-01-26T09:24:44.194Z,2.67
2019-01-26T09:25:44.186Z,2.72
2019-01-26T09:26:44.170Z,2.74
2019-01-26T09:27:44.159Z,2.71
2019-01-26T09:28:44.182Z,2.72
2019-01-26T09:29:44.135Z,2.74
2019-01-26T09:30:44.133Z,2.67
2019-01-26T09:31:44.123Z,2.71
2019-01-26T09:32:44.108Z,2.69
2019-01-26T09:33:44.111Z,2.74
2019-01-26T09:34:44.079Z,2.81
2019-01-26T09:35:44.064Z,2.71
2019-01-26T09:36:44.071Z,2.82
2019-01-26T09:37:44.048Z,2.82
2019-01-26T09:38:44.078Z,2.79
2019-01-26T09:39:44.025Z,2.82
2019-01-26T09:40:44.952Z,2.81
2019-01-26T09:41:44.003Z,2.82
2019-01-26T09:42:44.008Z,2.79
2019-01-26T09:43:44.001Z,2.85
2019-01-26T09:44:43.987Z,2.84
2019-01-26T09:45:43.959Z,2.82
2019-01-26T09:46:43.958Z,2.75
2019-01-26T09:47:43.936Z,2.74
2019-01-26T09:48:46.313Z,2.74
2019-01-26T09:49:43.928Z,2.72
2019-01-26T09:50:43.913Z,2.75
2019-01-26T09:51:43.894Z,2.69
2019-01-26T09:52:43.878Z,2.75
2019-01-26T09:53:43.884Z,2.78
2019-01-26T09:54:43.867Z,2.57
2019-01-26T09:55:43.842Z,2.63
2019-01-26T09:56:43.842Z,2.59
2019-01-26T09:57:43.831Z,2.56
2019-01-26T09:58:43.828Z,2.53
2019-01-26T09:59:43.831Z,2.53
2019-01-26T10:00:43.788Z,2.53
2019-01-26T10:01:43.779Z,2.59
2019-01-26T10:02:43.765Z,2.52
2019-01-26T10:03:43.766Z,2.60
2019-01-26T10:04:43.769Z,2.54
2019-01-26T10:05:43.761Z,2.57
2019-01-26T10:06:43.726Z,2.54
2019-01-26T10:07:43.715Z,2.56
2019-01-26T10:08:43.757Z,2.52
2019-01-26T10:09:43.707Z,2.59
2019-01-26T10:10:43.688Z,2.57
2019-01-26T10:11:43.676Z,2.56
2019-01-26T10:12:43.655Z,2.59
2019-01-26T10:13:43.644Z,2.63
2019-01-26T10:14:43.659Z,2.61
2019-01-26T10:15:43.627Z,2.54
2019-01-26T10:16:43.616Z,2.54
2019-01-26T10:17:45.887Z,2.56
2019-01-26T10:18:43.598Z,2.56
2019-01-26T10:19:43.602Z,2.59
2019-01-26T10:20:43.574Z,2.59
2019-01-26T10:21:43.559Z,2.57
2019-01-26T10:22:43.551Z,2.60
2019-01-26T10:23:43.546Z,2.60
2019-01-26T10:24:43.545Z,2.63
2019-01-26T10:25:48.595Z,2.67
2019-01-26T10:26:44.519Z,2.72
2019-01-26T10:27:43.503Z,2.74
2019-01-26T10:28:43.502Z,2.71
2019-01-26T10:29:43.483Z,2.72
2019-01-26T10:30:43.493Z,2.64
2019-01-26T10:31:44.269Z,2.64
2019-01-26T10:32:43.439Z,2.67
2019-01-26T10:33:43.434Z,2.74
2019-01-26T10:34:43.442Z,2.75
2019-01-26T10:35:43.402Z,2.69
2019-01-26T10:36:43.398Z,2.78
2019-01-26T10:37:43.384Z,2.81
2019-01-26T10:38:43.370Z,2.82
2019-01-26T10:39:43.359Z,2.85
2019-01-26T10:40:43.364Z,2.85
2019-01-26T10:41:43.334Z,2.89
2019-01-26T10:42:43.366Z,2.84
2019-01-26T10:43:43.326Z,2.79
2019-01-26T10:44:43.316Z,2.85
2019-01-26T10:45:43.295Z,2.89
2019-01-26T10:46:43.322Z,2.87
2019-01-26T10:47:43.279Z,2.97
2019-01-26T10:48:43.271Z,2.96
2019-01-26T10:49:43.256Z,2.92
2019-01-26T10:50:43.255Z,2.89
2019-01-26T10:51:43.380Z,3.02
2019-01-26T10:52:43.215Z,2.97
2019-01-26T10:53:43.206Z,3.03
2019-01-26T10:54:43.207Z,3.00
2019-01-26T10:55:43.194Z,2.96
2019-01-26T10:56:43.211Z,3.03
2019-01-26T10:57:43.172Z,3.08
2019-01-26T10:58:43.151Z,3.11
2019-01-26T10:59:43.164Z,3.11
2019-01-26T11:00:43.165Z,3.17
2019-01-26T11:01:43.113Z,3.08
2019-01-26T11:02:43.147Z,3.11
2019-01-26T11:03:43.107Z,3.13
2019-01-26T11:04:43.102Z,3.18
2019-01-26T11:05:43.096Z,3.14
2019-01-26T11:06:43.063Z,3.13
2019-01-26T11:07:43.073Z,3.13
2019-01-26T11:08:43.081Z,3.08
2019-01-26T11:09:43.034Z,3.10
2019-01-26T11:10:43.018Z,3.20
2019-01-26T11:11:43.006Z,3.20
2019-01-26T11:12:43.008Z,3.20
2019-01-26T11:13:42.988Z,3.21
2019-01-26T11:14:42.979Z,3.26
2019-01-26T11:15:42.961Z,3.26
2019-01-26T11:16:42.968Z,3.32
2019-01-26T11:17:42.961Z,3.24
2019-01-26T11:18:42.932Z,3.39
2019-01-26T11:19:42.914Z,3.36
2019-01-26T11:20:42.906Z,3.43
2019-01-26T11:21:42.900Z,3.36
2019-01-26T11:22:42.911Z,3.40
2019-01-26T11:23:42.918Z,3.40
2019-01-26T11:24:42.865Z,3.45
2019-01-26T11:25:42.864Z,3.51
2019-01-26T11:26:48.952Z,3.50
2019-01-26T11:27:43.853Z,3.52
2019-01-26T11:28:42.815Z,3.52
2019-01-26T11:29:42.814Z,3.60
2019-01-26T11:30:42.802Z,3.57
2019-01-26T11:31:42.802Z,3.58
2019-01-26T11:32:42.808Z,3.51
2019-01-26T11:33:42.864Z,3.54
2019-01-26T11:34:42.755Z,3.54
2019-01-26T11:35:42.751Z,3.60
2019-01-26T11:36:42.742Z,3.62
2019-01-26T11:37:42.767Z,3.61
2019-01-26T11:38:42.728Z,3.66
2019-01-26T11:39:42.694Z,3.70
2019-01-26T11:40:42.689Z,3.62
2019-01-26T11:41:42.685Z,3.66
2019-01-26T11:42:42.689Z,3.61
2019-01-26T11:43:42.699Z,3.66
2019-01-26T11:44:42.697Z,3.66
2019-01-26T11:45:42.641Z,3.61
2019-01-26T11:46:42.650Z,3.57
2019-01-26T11:47:42.622Z,3.68
2019-01-26T11:48:42.615Z,3.55
2019-01-26T11:49:42.590Z,3.68
2019-01-26T11:50:42.612Z,3.68
2019-01-26T11:51:42.567Z,3.62
2019-01-26T11:52:42.568Z,3.60
2019-01-26T11:53:42.566Z,3.58
2019-01-26T11:54:42.542Z,3.60
2019-01-26T11:55:42.547Z,3.61
2019-01-26T11:56:42.571Z,3.61
2019-01-26T11:57:42.538Z,3.66
2019-01-26T11:58:42.522Z,3.61
2019-01-26T11:59:42.535Z,3.58
2019-01-26T12:00:42.491Z,3.62
2019-01-26T12:01:42.465Z,3.68
2019-01-26T12:02:42.466Z,3.65
2019-01-26T12:03:42.480Z,3.68
2019-01-26T12:04:42.438Z,3.62
2019-01-26T12:05:42.414Z,3.69
2019-01-26T12:06:42.416Z,3.61
2019-01-26T12:07:42.412Z,3.65
2019-01-26T12:08:42.387Z,3.65
2019-01-26T12:09:43.906Z,3.61
2019-01-26T12:10:42.369Z,3.62
2019-01-26T12:11:42.350Z,3.70
2019-01-26T12:12:42.361Z,3.72
2019-01-26T12:13:42.463Z,3.73
2019-01-26T12:14:42.334Z,3.65
2019-01-26T12:15:42.328Z,3.73
2019-01-26T12:16:42.331Z,3.69
2019-01-26T12:17:42.285Z,3.78
2019-01-26T12:18:42.293Z,3.72
2019-01-26T12:19:42.289Z,3.73
2019-01-26T12:20:42.255Z,3.72
2019-01-26T12:21:42.249Z,3.78
2019-01-26T12:22:42.240Z,3.78
2019-01-26T12:23:42.230Z,3.78
2019-01-26T12:24:42.245Z,3.79
2019-01-26T12:25:42.253Z,3.86
2019-01-26T12:26:42.212Z,3.83
2019-01-26T12:27:42.180Z,3.80
2019-01-26T12:28:42.169Z,3.93
2019-01-26T12:29:42.185Z,3.86
2019-01-26T12:30:42.148Z,3.97
2019-01-26T12:31:42.154Z,3.98
2019-01-26T12:32:42.128Z,4.02
2019-01-26T12:33:42.150Z,4.05
2019-01-26T12:34:42.139Z,4.05
2019-01-26T12:35:42.113Z,3.98
2019-01-26T12:36:42.081Z,4.04
2019-01-26T12:37:42.069Z,4.08
2019-01-26T12:38:42.071Z,4.04
2019-01-26T12:39:42.044Z,4.16
2019-01-26T12:40:42.059Z,4.02
2019-01-26T12:41:42.036Z,4.09
2019-01-26T12:42:42.021Z,4.11
2019-01-26T12:43:42.006Z,4.20
2019-01-26T12:44:42.006Z,4.20
2019-01-26T12:45:42.014Z,4.16
2019-01-26T12:46:41.977Z,4.12
2019-01-26T12:47:41.967Z,4.27
2019-01-26T12:48:41.950Z,4.20
2019-01-26T12:49:41.939Z,4.14
2019-01-26T12:50:41.944Z,4.24
2019-01-26T12:51:41.926Z,4.16
2019-01-26T12:52:41.925Z,4.23
2019-01-26T12:53:41.896Z,4.23
2019-01-26T12:54:41.887Z,4.27
2019-01-26T12:55:41.929Z,4.29
2019-01-26T12:56:41.874Z,4.30
2019-01-26T12:57:41.856Z,4.32
2019-01-26T12:58:41.870Z,4.33
2019-01-26T12:59:41.837Z,4.33
2019-01-26T13:00:41.830Z,4.40
2019-01-26T13:01:41.838Z,4.40
2019-01-26T13:02:41.810Z,4.40
2019-01-26T13:03:41.800Z,4.41
2019-01-26T13:04:41.774Z,4.45
2019-01-26T13:05:41.776Z,4.42
2019-01-26T13:06:41.783Z,4.50
2019-01-26T13:07:41.746Z,4.50
2019-01-26T13:08:41.758Z,4.50
2019-01-26T13:09:41.725Z,4.52
2019-01-26T13:10:41.706Z,4.55
2019-01-26T13:11:41.724Z,4.47
2019-01-26T13:12:41.688Z,4.59
2019-01-26T13:13:41.679Z,4.58
2019-01-26T13:14:41.671Z,4.45
2019-01-26T13:15:41.657Z,4.47
2019-01-26T13:16:41.662Z,4.58
2019-01-26T13:17:41.631Z,4.54
2019-01-26T13:18:41.625Z,4.66